sensor_id;sensor_type;location;lat;lon;timestamp;pressure;altitude;pressure_sealevel;temperature;humidity
5500;BME280;2772;42.700;23.304;2022-09-21T00:01:50;95282.72;;;11.89;100.00
5500;BME280;2772;42.700;23.304;2022-09-21T00:04:17;95281.91;;;11.88;100.00
5500;BME280;2772;42.700;23.304;2022-09-21T00:06:44;95280.03;;;11.80;100.00
5500;BME280;2772;42.700;23.304;2022-09-21T00:09:11;95276.75;;;11.83;100.00
5500;BME280;2772;42.700;23.304;2022-09-21T00:11:38;95280.63;;;11.77;100.00
5500;BME280;2772;42.700;23.304;2022-09-21T00:14:06;95280.16;;;11.75;100.00
5500;BME280;2772;42.700;23.304;2022-09-21T00:16:36;95284.19;;;11.64;100.00
5500;BME280;2772;42.700;23.304;2022-09-21T00:19:03;95276.50;;;11.63;100.00
5500;BME280;2772;42.700;23.304;2022-09-21T00:21:31;95276.13;;;11.56;100.00
5500;BME280;2772;42.700;23.304;2022-09-21T00:23:59;95276.25;;;11.51;100.00
5500;BME280;2772;42.700;23.304;2022-09-21T00:26:27;95272.31;;;11.48;100.00
5500;BME280;2772;42.700;23.304;2022-09-21T00:28:55;95278.56;;;11.44;100.00
5500;BME280;2772;42.700;23.304;2022-09-21T00:31:23;95283.59;;;11.45;100.00
5500;BME280;2772;42.700;23.304;2022-09-21T00:33:52;95280.44;;;11.43;100.00
5500;BME280;2772;42.700;23.304;2022-09-21T00:36:20;95276.22;;;11.42;100.00
5500;BME280;2772;42.700;23.304;2022-09-21T00:38:48;95277.63;;;11.40;100.00
5500;BME280;2772;42.700;23.304;2022-09-21T00:41:15;95285.78;;;11.12;100.00
5500;BME280;2772;42.700;23.304;2022-09-21T00:43:45;95285.28;;;11.10;100.00
5500;BME280;2772;42.700;23.304;2022-09-21T00:46:15;95280.22;;;11.00;100.00
5500;BME280;2772;42.700;23.304;2022-09-21T00:48:44;95283.63;;;10.92;100.00
5500;BME280;2772;42.700;23.304;2022-09-21T00:51:12;95290.16;;;10.86;100.00
5500;BME280;2772;42.700;23.304;2022-09-21T00:53:39;95282.47;;;10.85;100.00
5500;BME280;2772;42.700;23.304;2022-09-21T00:56:07;95275.56;;;10.84;100.00
5500;BME280;2772;42.700;23.304;2022-09-21T00:58:38;95280.28;;;10.87;100.00
5500;BME280;2772;42.700;23.304;2022-09-21T01:01:06;95273.69;;;10.84;100.00
5500;BME280;2772;42.700;23.304;2022-09-21T01:03:33;95280.78;;;10.89;100.00
5500;BME280;2772;42.700;23.304;2022-09-21T01:05:59;95285.19;;;10.93;100.00
5500;BME280;2772;42.700;23.304;2022-09-21T01:08:28;95273.19;;;10.82;100.00
5500;BME280;2772;42.700;23.304;2022-09-21T01:11:15;95291.63;;;10.92;100.00
5500;BME280;2772;42.700;23.304;2022-09-21T01:14:02;95276.09;;;10.94;100.00
5500;BME280;2772;42.700;23.304;2022-09-21T01:16:35;95268.09;;;10.94;100.00
5500;BME280;2772;42.700;23.304;2022-09-21T01:19:14;95270.59;;;10.91;100.00
5500;BME280;2772;42.700;23.304;2022-09-21T01:21:52;95274.13;;;10.78;100.00
5500;BME280;2772;42.700;23.304;2022-09-21T01:24:35;95270.78;;;10.72;100.00
5500;BME280;2772;42.700;23.304;2022-09-21T01:27:35;95264.91;;;10.62;100.00
5500;BME280;2772;42.700;23.304;2022-09-21T01:30:10;95263.34;;;10.61;100.00
5500;BME280;2772;42.700;23.304;2022-09-21T01:32:41;95243.59;;;10.62;100.00
5500;BME280;2772;42.700;23.304;2022-09-21T01:35:12;95253.47;;;10.61;100.00
5500;BME280;2772;42.700;23.304;2022-09-21T01:37:44;95255.66;;;10.59;100.00
5500;BME280;2772;42.700;23.304;2022-09-21T01:40:17;95256.84;;;10.53;100.00
5500;BME280;2772;42.700;23.304;2022-09-21T01:42:47;95253.16;;;10.41;100.00
5500;BME280;2772;42.700;23.304;2022-09-21T01:45:22;95253.16;;;10.41;100.00
5500;BME280;2772;42.700;23.304;2022-09-21T01:47:53;95248.63;;;10.41;100.00
5500;BME280;2772;42.700;23.304;2022-09-21T01:50:22;95250.19;;;10.42;100.00
5500;BME280;2772;42.700;23.304;2022-09-21T01:52:53;95255.41;;;10.47;100.00
5500;BME280;2772;42.700;23.304;2022-09-21T01:55:26;95260.47;;;10.57;100.00
5500;BME280;2772;42.700;23.304;2022-09-21T01:57:58;95258.91;;;10.56;100.00
5500;BME280;2772;42.700;23.304;2022-09-21T02:00:29;95253.94;;;10.63;100.00
5500;BME280;2772;42.700;23.304;2022-09-21T02:02:59;95261.47;;;10.61;100.00
5500;BME280;2772;42.700;23.304;2022-09-21T02:05:29;95260.38;;;10.62;100.00
5500;BME280;2772;42.700;23.304;2022-09-21T02:07:57;95256.00;;;10.44;100.00
5500;BME280;2772;42.700;23.304;2022-09-21T02:10:27;95264.09;;;10.39;100.00
5500;BME280;2772;42.700;23.304;2022-09-21T02:12:57;95259.97;;;10.33;100.00
5500;BME280;2772;42.700;23.304;2022-09-21T02:15:34;95264.31;;;10.29;100.00
5500;BME280;2772;42.700;23.304;2022-09-21T02:18:07;95256.81;;;10.31;100.00
5500;BME280;2772;42.700;23.304;2022-09-21T02:20:46;95261.84;;;10.33;100.00
5500;BME280;2772;42.700;23.304;2022-09-21T02:23:22;95264.91;;;10.26;100.00
5500;BME280;2772;42.700;23.304;2022-09-21T02:25:55;95259.59;;;10.26;100.00
5500;BME280;2772;42.700;23.304;2022-09-21T02:28:28;95261.47;;;10.26;100.00
5500;BME280;2772;42.700;23.304;2022-09-21T02:31:06;95259.28;;;10.28;100.00
5500;BME280;2772;42.700;23.304;2022-09-21T02:33:42;95272.19;;;10.34;100.00
5500;BME280;2772;42.700;23.304;2022-09-21T02:36:18;95267.47;;;10.31;100.00
5500;BME280;2772;42.700;23.304;2022-09-21T02:38:50;95264.31;;;10.29;100.00
5500;BME280;2772;42.700;23.304;2022-09-21T02:41:19;95259.78;;;10.30;100.00
5500;BME280;2772;42.700;23.304;2022-09-21T02:43:52;95267.47;;;10.31;100.00
5500;BME280;2772;42.700;23.304;2022-09-21T02:46:29;95260.09;;;10.28;100.00
5500;BME280;2772;42.700;23.304;2022-09-21T02:49:00;95263.91;;;10.36;100.00
5500;BME280;2772;42.700;23.304;2022-09-21T02:51:31;95263.72;;;10.32;100.00
5500;BME280;2772;42.700;23.304;2022-09-21T02:54:02;95269.63;;;10.29;100.00
5500;BME280;2772;42.700;23.304;2022-09-21T02:56:30;95259.50;;;10.31;100.00
5500;BME280;2772;42.700;23.304;2022-09-21T02:59:01;95264.44;;;10.24;100.00
5500;BME280;2772;42.700;23.304;2022-09-21T03:01:31;95264.00;;;10.31;100.00
5500;BME280;2772;42.700;23.304;2022-09-21T03:03:58;95270.75;;;10.28;100.00
5500;BME280;2772;42.700;23.304;2022-09-21T03:06:25;95265.78;;;10.35;100.00
5500;BME280;2772;42.700;23.304;2022-09-21T03:08:52;95274.78;;;10.26;100.00
5500;BME280;2772;42.700;23.304;2022-09-21T03:11:19;95268.88;;;10.29;100.00
5500;BME280;2772;42.700;23.304;2022-09-21T03:13:46;95266.50;;;10.27;100.00
5500;BME280;2772;42.700;23.304;2022-09-21T03:16:13;95273.28;;;10.33;100.00
5500;BME280;2772;42.700;23.304;2022-09-21T03:18:41;95270.13;;;10.31;100.00
5500;BME280;2772;42.700;23.304;2022-09-21T03:21:09;95261.06;;;10.32;100.00
5500;BME280;2772;42.700;23.304;2022-09-21T03:23:36;95264.00;;;10.31;100.00
5500;BME280;2772;42.700;23.304;2022-09-21T03:26:03;95271.84;;;10.27;100.00
5500;BME280;2772;42.700;23.304;2022-09-21T03:28:30;95273.41;;;10.28;100.00
5500;BME280;2772;42.700;23.304;2022-09-21T03:30:57;95271.69;;;10.32;100.00
5500;BME280;2772;42.700;23.304;2022-09-21T03:33:23;95271.94;;;10.22;100.00
5500;BME280;2772;42.700;23.304;2022-09-21T03:35:52;95268.88;;;10.29;100.00
5500;BME280;2772;42.700;23.304;2022-09-21T03:38:19;95272.59;;;10.28;100.00
5500;BME280;2772;42.700;23.304;2022-09-21T03:40:47;95271.44;;;10.20;100.00
5500;BME280;2772;42.700;23.304;2022-09-21T03:43:14;95268.88;;;10.15;100.00
5500;BME280;2772;42.700;23.304;2022-09-21T03:45:41;95266.72;;;10.17;100.00
5500;BME280;2772;42.700;23.304;2022-09-21T03:48:09;95277.66;;;10.16;100.00
5500;BME280;2772;42.700;23.304;2022-09-21T03:50:37;95281.59;;;10.05;100.00
5500;BME280;2772;42.700;23.304;2022-09-21T03:53:05;95271.75;;;10.05;100.00
5500;BME280;2772;42.700;23.304;2022-09-21T03:55:31;95276.38;;;10.13;100.00
5500;BME280;2772;42.700;23.304;2022-09-21T03:57:59;95278.75;;;10.15;100.00
5500;BME280;2772;42.700;23.304;2022-09-21T04:00:26;95283.69;;;10.08;100.00
5500;BME280;2772;42.700;23.304;2022-09-21T04:02:53;95281.53;;;10.10;100.00
5500;BME280;2772;42.700;23.304;2022-09-21T04:05:20;95282.50;;;10.14;100.00
5500;BME280;2772;42.700;23.304;2022-09-21T04:07:46;95280.22;;;10.07;100.00
5500;BME280;2772;42.700;23.304;2022-09-21T04:10:16;95279.94;;;9.95;100.00
5500;BME280;2772;42.700;23.304;2022-09-21T04:12:44;95288.31;;;10.02;100.00
5500;BME280;2772;42.700;23.304;2022-09-21T04:15:12;95280.91;;;9.99;100.00
5500;BME280;2772;42.700;23.304;2022-09-21T04:17:40;95280.44;;;9.97;100.00
5500;BME280;2772;42.700;23.304;2022-09-21T04:20:07;95291.38;;;9.96;100.00
5500;BME280;2772;42.700;23.304;2022-09-21T04:22:34;95279.22;;;10.03;100.00
5500;BME280;2772;42.700;23.304;2022-09-21T04:25:02;95279.53;;;10.15;100.00
5500;BME280;2772;42.700;23.304;2022-09-21T04:27:30;95280.31;;;10.16;100.00
5500;BME280;2772;42.700;23.304;2022-09-21T04:29:57;95279.94;;;10.22;100.00
5500;BME280;2772;42.700;23.304;2022-09-21T04:32:24;95271.94;;;10.22;100.00
5500;BME280;2772;42.700;23.304;2022-09-21T04:34:51;95270.25;;;10.26;100.00
5500;BME280;2772;42.700;23.304;2022-09-21T04:37:18;95286.31;;;10.21;100.00
5500;BME280;2772;42.700;23.304;2022-09-21T04:39:45;95271.94;;;10.22;100.00
5500;BME280;2772;42.700;23.304;2022-09-21T04:42:11;95281.69;;;10.27;100.00
5500;BME280;2772;42.700;23.304;2022-09-21T04:44:40;95289.69;;;10.13;100.00
5500;BME280;2772;42.700;23.304;2022-09-21T04:47:06;95279.94;;;10.09;100.00
5500;BME280;2772;42.700;23.304;2022-09-21T04:49:33;95279.22;;;10.17;100.00
5500;BME280;2772;42.700;23.304;2022-09-21T04:52:00;95281.28;;;10.20;100.00
5500;BME280;2772;42.700;23.304;2022-09-21T04:54:27;95284.66;;;10.25;100.00
5500;BME280;2772;42.700;23.304;2022-09-21T04:56:54;95285.16;;;10.27;100.00
5500;BME280;2772;42.700;23.304;2022-09-21T04:59:21;95294.69;;;10.28;100.00
5500;BME280;2772;42.700;23.304;2022-09-21T05:01:49;95287.97;;;10.31;100.00
5500;BME280;2772;42.700;23.304;2022-09-21T05:04:16;95300.50;;;10.30;100.00
5500;BME280;2772;42.700;23.304;2022-09-21T05:06:43;95295.25;;;10.39;100.00
5500;BME280;2772;42.700;23.304;2022-09-21T05:09:09;95293.22;;;10.58;100.00
5500;BME280;2772;42.700;23.304;2022-09-21T05:11:53;95299.06;;;10.60;100.00
5500;BME280;2772;42.700;23.304;2022-09-21T05:14:20;95293.78;;;10.68;100.00
5500;BME280;2772;42.700;23.304;2022-09-21T05:16:48;95299.72;;;10.65;100.00
5500;BME280;2772;42.700;23.304;2022-09-21T05:19:15;95308.56;;;10.74;100.00
5500;BME280;2772;42.700;23.304;2022-09-21T05:21:42;95302.75;;;10.72;100.00
5500;BME280;2772;42.700;23.304;2022-09-21T05:24:09;95297.19;;;10.82;100.00
5500;BME280;2772;42.700;23.304;2022-09-21T05:26:36;95302.38;;;10.87;100.00
5500;BME280;2772;42.700;23.304;2022-09-21T05:29:03;95301.44;;;10.83;100.00
5500;BME280;2772;42.700;23.304;2022-09-21T05:31:44;95298.59;;;10.80;100.00
5500;BME280;2772;42.700;23.304;2022-09-21T05:34:24;95297.56;;;10.89;100.00
5500;BME280;2772;42.700;23.304;2022-09-21T05:36:58;95299.72;;;10.87;100.00
5500;BME280;2772;42.700;23.304;2022-09-21T05:39:27;95301.34;;;10.75;100.00
5500;BME280;2772;42.700;23.304;2022-09-21T05:45:56;95299.41;;;11.11;100.00
5500;BME280;2772;42.700;23.304;2022-09-21T05:48:30;95300.22;;;11.11;100.00
5500;BME280;2772;42.700;23.304;2022-09-21T05:51:03;95300.22;;;11.11;100.00
5500;BME280;2772;42.700;23.304;2022-09-21T05:53:53;95302.00;;;11.24;100.00
5500;BME280;2772;42.700;23.304;2022-09-21T05:56:39;95296.25;;;11.31;100.00
5500;BME280;2772;42.700;23.304;2022-09-21T05:59:28;95300.53;;;11.41;100.00
5500;BME280;2772;42.700;23.304;2022-09-21T06:02:03;95300.56;;;11.49;100.00
5500;BME280;2772;42.700;23.304;2022-09-21T06:04:34;95302.75;;;11.47;100.00
5500;BME280;2772;42.700;23.304;2022-09-21T06:07:01;95302.59;;;11.44;100.00
5500;BME280;2772;42.700;23.304;2022-09-21T06:09:28;95307.94;;;11.52;100.00
5500;BME280;2772;42.700;23.304;2022-09-21T06:11:54;95304.19;;;11.53;100.00
5500;BME280;2772;42.700;23.304;2022-09-21T06:14:21;95306.88;;;11.53;100.00
5500;BME280;2772;42.700;23.304;2022-09-21T06:16:51;95301.63;;;11.40;100.00
5500;BME280;2772;42.700;23.304;2022-09-21T06:19:19;95305.00;;;11.54;100.00
5500;BME280;2772;42.700;23.304;2022-09-21T06:21:46;95305.94;;;11.58;100.00
5500;BME280;2772;42.700;23.304;2022-09-21T06:24:13;95307.00;;;11.79;100.00
5500;BME280;2772;42.700;23.304;2022-09-21T06:26:39;95316.34;;;12.07;100.00
5500;BME280;2772;42.700;23.304;2022-09-21T06:29:07;95314.66;;;12.11;100.00
5500;BME280;2772;42.700;23.304;2022-09-21T06:31:34;95318.28;;;12.32;100.00
5500;BME280;2772;42.700;23.304;2022-09-21T06:34:01;95316.28;;;12.37;100.00
5500;BME280;2772;42.700;23.304;2022-09-21T06:36:29;95317.88;;;12.47;100.00
5500;BME280;2772;42.700;23.304;2022-09-21T06:38:56;95322.91;;;12.48;100.00
5500;BME280;2772;42.700;23.304;2022-09-21T06:41:23;95322.56;;;12.58;100.00
5500;BME280;2772;42.700;23.304;2022-09-21T06:43:52;95321.94;;;12.36;100.00
5500;BME280;2772;42.700;23.304;2022-09-21T06:46:19;95323.22;;;12.47;100.00
5500;BME280;2772;42.700;23.304;2022-09-21T06:48:46;95321.00;;;12.57;100.00
5500;BME280;2772;42.700;23.304;2022-09-21T06:51:14;95317.56;;;12.74;100.00
5500;BME280;2772;42.700;23.304;2022-09-21T06:53:42;95326.38;;;12.83;100.00
5500;BME280;2772;42.700;23.304;2022-09-21T06:56:09;95316.00;;;12.82;100.00
5500;BME280;2772;42.700;23.304;2022-09-21T06:58:36;95330.13;;;12.99;100.00
5500;BME280;2772;42.700;23.304;2022-09-21T07:01:04;95326.06;;;13.10;100.00
5500;BME280;2772;42.700;23.304;2022-09-21T07:03:32;95326.88;;;13.19;100.00
5500;BME280;2772;42.700;23.304;2022-09-21T07:05:59;95328.88;;;13.39;100.00
5500;BME280;2772;42.700;23.304;2022-09-21T07:08:26;95332.63;;;13.38;100.00
5500;BME280;2772;42.700;23.304;2022-09-21T07:10:56;95329.97;;;13.47;100.00
5500;BME280;2772;42.700;23.304;2022-09-21T07:13:23;95336.72;;;13.44;100.00
5500;BME280;2772;42.700;23.304;2022-09-21T07:15:50;95336.72;;;13.53;100.00
5500;BME280;2772;42.700;23.304;2022-09-21T07:18:17;95337.66;;;13.48;100.00
5500;BME280;2772;42.700;23.304;2022-09-21T07:20:44;95343.81;;;13.40;100.00
5500;BME280;2772;42.700;23.304;2022-09-21T07:23:11;95336.91;;;13.39;100.00
5500;BME280;2772;42.700;23.304;2022-09-21T07:25:39;95323.97;;;13.41;100.00
5500;BME280;2772;42.700;23.304;2022-09-21T07:28:07;95341.16;;;13.40;100.00
5500;BME280;2772;42.700;23.304;2022-09-21T07:30:34;95334.03;;;13.53;100.00
5500;BME280;2772;42.700;23.304;2022-09-21T07:33:02;95327.56;;;13.62;100.00
5500;BME280;2772;42.700;23.304;2022-09-21T07:35:29;95329.59;;;13.57;100.00
5500;BME280;2772;42.700;23.304;2022-09-21T07:37:56;95339.81;;;13.63;100.00
5500;BME280;2772;42.700;23.304;2022-09-21T07:40:24;95344.09;;;13.64;100.00
5500;BME280;2772;42.700;23.304;2022-09-21T07:42:50;95340.31;;;13.57;100.00
5500;BME280;2772;42.700;23.304;2022-09-21T07:45:19;95334.31;;;13.60;100.00
5500;BME280;2772;42.700;23.304;2022-09-21T07:47:46;95332.44;;;13.69;100.00
5500;BME280;2772;42.700;23.304;2022-09-21T07:50:12;95336.34;;;13.71;100.00
5500;BME280;2772;42.700;23.304;2022-09-21T07:52:39;95339.38;;;13.61;100.00
5500;BME280;2772;42.700;23.304;2022-09-21T07:55:06;95330.81;;;13.76;100.00
5500;BME280;2772;42.700;23.304;2022-09-21T07:57:33;95330.97;;;13.80;100.00
5500;BME280;2772;42.700;23.304;2022-09-21T08:00:19;95335.38;;;13.84;100.00
5500;BME280;2772;42.700;23.304;2022-09-21T08:02:46;95330.66;;;13.81;100.00
5500;BME280;2772;42.700;23.304;2022-09-21T08:05:13;95328.50;;;14.04;100.00
5500;BME280;2772;42.700;23.304;2022-09-21T08:07:39;95334.00;;;14.07;100.00
5500;BME280;2772;42.700;23.304;2022-09-21T08:10:07;95326.25;;;14.14;100.00
5500;BME280;2772;42.700;23.304;2022-09-21T08:12:34;95331.09;;;14.21;100.00
5500;BME280;2772;42.700;23.304;2022-09-21T08:15:01;95341.47;;;14.31;100.00
5500;BME280;2772;42.700;23.304;2022-09-21T08:17:29;95325.03;;;14.41;100.00
5500;BME280;2772;42.700;23.304;2022-09-21T08:19:55;95322.31;;;14.50;100.00
5500;BME280;2772;42.700;23.304;2022-09-21T08:22:23;95335.97;;;14.57;100.00
5500;BME280;2772;42.700;23.304;2022-09-21T08:24:50;95333.41;;;14.60;100.00
5500;BME280;2772;42.700;23.304;2022-09-21T08:27:17;95328.00;;;14.48;100.00
5500;BME280;2772;42.700;23.304;2022-09-21T08:29:45;95324.66;;;14.51;100.00
5500;BME280;2772;42.700;23.304;2022-09-21T08:32:11;95328.44;;;14.71;100.00
5500;BME280;2772;42.700;23.304;2022-09-21T08:34:39;95320.34;;;14.79;100.00
5500;BME280;2772;42.700;23.304;2022-09-21T08:37:06;95319.03;;;14.85;100.00
5500;BME280;2772;42.700;23.304;2022-09-21T08:39:33;95330.59;;;14.57;100.00
5500;BME280;2772;42.700;23.304;2022-09-21T08:42:10;95314.47;;;14.65;100.00
5500;BME280;2772;42.700;23.304;2022-09-21T08:44:43;95321.16;;;14.80;100.00
5500;BME280;2772;42.700;23.304;2022-09-21T08:47:20;95312.84;;;14.93;100.00
5500;BME280;2772;42.700;23.304;2022-09-21T08:49:52;95320.09;;;14.93;97.44
5500;BME280;2772;42.700;23.304;2022-09-21T08:52:22;95313.16;;;14.92;96.53
5500;BME280;2772;42.700;23.304;2022-09-21T08:54:53;95311.28;;;14.92;95.80
5500;BME280;2772;42.700;23.304;2022-09-21T08:57:22;95305.97;;;15.04;95.29
5500;BME280;2772;42.700;23.304;2022-09-21T08:59:50;95300.91;;;15.23;94.14
5500;BME280;2772;42.700;23.304;2022-09-21T09:02:33;95296.56;;;15.31;91.58
5500;BME280;2772;42.700;23.304;2022-09-21T09:05:21;95301.38;;;15.37;90.33
5500;BME280;2772;42.700;23.304;2022-09-21T09:08:05;95291.03;;;15.48;89.57
5500;BME280;2772;42.700;23.304;2022-09-21T09:10:38;95291.72;;;15.45;86.46
5500;BME280;2772;42.700;23.304;2022-09-21T09:13:39;95299.44;;;15.46;84.77
5500;BME280;2772;42.700;23.304;2022-09-21T09:16:17;95289.34;;;15.43;84.51
5500;BME280;2772;42.700;23.304;2022-09-21T09:18:52;95296.53;;;15.51;84.04
5500;BME280;2772;42.700;23.304;2022-09-21T09:21:24;95302.31;;;15.41;82.45
5500;BME280;2772;42.700;23.304;2022-09-21T09:23:56;95290.19;;;15.35;86.04
5500;BME280;2772;42.700;23.304;2022-09-21T09:26:33;95280.66;;;15.26;88.60
5500;BME280;2772;42.700;23.304;2022-09-21T09:29:05;95278.34;;;15.36;92.59
5500;BME280;2772;42.700;23.304;2022-09-21T09:31:39;95278.75;;;15.47;90.99
5500;BME280;2772;42.700;23.304;2022-09-21T09:34:09;95288.34;;;15.48;88.92
5500;BME280;2772;42.700;23.304;2022-09-21T09:36:44;95277.16;;;15.46;88.66
5500;BME280;2772;42.700;23.304;2022-09-21T09:39:13;95270.91;;;15.42;86.57
5500;BME280;2772;42.700;23.304;2022-09-21T09:41:53;95275.34;;;15.38;88.17
5500;BME280;2772;42.700;23.304;2022-09-21T09:44:37;95280.50;;;15.43;87.56
5500;BME280;2772;42.700;23.304;2022-09-21T09:47:16;95269.03;;;15.22;88.95
5500;BME280;2772;42.700;23.304;2022-09-21T09:49:58;95275.16;;;14.90;90.07
5500;BME280;2772;42.700;23.304;2022-09-21T09:52:29;95264.69;;;14.97;90.71
5500;BME280;2772;42.700;23.304;2022-09-21T09:54:57;95263.19;;;14.87;89.22
5500;BME280;2772;42.700;23.304;2022-09-21T09:57:28;95257.66;;;14.72;93.80
5500;BME280;2772;42.700;23.304;2022-09-21T09:59:58;95256.72;;;14.68;94.18
5500;BME280;2772;42.700;23.304;2022-09-21T10:02:27;95250.78;;;14.83;94.34
5500;BME280;2772;42.700;23.304;2022-09-21T10:04:55;95262.22;;;14.92;91.96
5500;BME280;2772;42.700;23.304;2022-09-21T10:07:36;95252.53;;;14.79;89.26
5500;BME280;2772;42.700;23.304;2022-09-21T10:10:22;95251.25;;;14.64;87.37
5500;BME280;2772;42.700;23.304;2022-09-21T10:12:50;95237.09;;;14.76;87.36
5500;BME280;2772;42.700;23.304;2022-09-21T10:15:17;95248.28;;;14.78;87.05
5500;BME280;2772;42.700;23.304;2022-09-21T10:17:45;95248.13;;;14.95;85.44
5500;BME280;2772;42.700;23.304;2022-09-21T10:20:15;95231.22;;;15.15;86.02
5500;BME280;2772;42.700;23.304;2022-09-21T10:22:45;95229.47;;;15.31;83.60
5500;BME280;2772;42.700;23.304;2022-09-21T10:25:15;95227.50;;;15.52;79.76
5500;BME280;2772;42.700;23.304;2022-09-21T10:27:46;95212.88;;;15.61;75.67
5500;BME280;2772;42.700;23.304;2022-09-21T10:30:32;95211.53;;;15.79;73.65
5500;BME280;2772;42.700;23.304;2022-09-21T10:32:59;95216.34;;;15.86;73.64
5500;BME280;2772;42.700;23.304;2022-09-21T10:35:26;95208.59;;;16.09;74.33
5500;BME280;2772;42.700;23.304;2022-09-21T10:38:10;95213.41;;;16.15;71.06
5500;BME280;2772;42.700;23.304;2022-09-21T10:40:37;95210.81;;;16.31;71.19
5500;BME280;2772;42.700;23.304;2022-09-21T10:43:04;95210.00;;;16.42;67.89
5500;BME280;2772;42.700;23.304;2022-09-21T10:45:33;95201.47;;;16.52;65.32
5500;BME280;2772;42.700;23.304;2022-09-21T10:48:07;95200.69;;;16.40;64.80
5500;BME280;2772;42.700;23.304;2022-09-21T10:50:36;95198.84;;;16.28;65.22
5500;BME280;2772;42.700;23.304;2022-09-21T10:53:12;95202.00;;;15.94;64.54
5500;BME280;2772;42.700;23.304;2022-09-21T10:55:52;95198.41;;;16.02;66.19
5500;BME280;2772;42.700;23.304;2022-09-21T10:58:20;95193.28;;;16.09;68.71
5500;BME280;2772;42.700;23.304;2022-09-21T11:00:50;95193.38;;;16.13;68.24
5500;BME280;2772;42.700;23.304;2022-09-21T11:03:34;95185.28;;;16.25;69.63
5500;BME280;2772;42.700;23.304;2022-09-21T11:06:10;95170.59;;;16.34;68.55
5500;BME280;2772;42.700;23.304;2022-09-21T11:08:45;95195.03;;;16.29;65.36
5500;BME280;2772;42.700;23.304;2022-09-21T11:11:29;95185.53;;;16.20;64.97
5500;BME280;2772;42.700;23.304;2022-09-21T11:14:00;95192.09;;;16.22;64.30
5500;BME280;2772;42.700;23.304;2022-09-21T11:16:33;95182.53;;;16.09;64.96
5500;BME280;2772;42.700;23.304;2022-09-21T11:19:08;95187.31;;;16.04;64.42
5500;BME280;2772;42.700;23.304;2022-09-21T11:21:42;95182.28;;;16.02;62.66
5500;BME280;2772;42.700;23.304;2022-09-21T11:27:03;95196.41;;;16.11;64.11
5500;BME280;2772;42.700;23.304;2022-09-21T11:29:39;95194.50;;;16.12;66.11
5500;BME280;2772;42.700;23.304;2022-09-21T11:32:25;95178.72;;;16.10;67.19
5500;BME280;2772;42.700;23.304;2022-09-21T11:35:17;95194.72;;;16.19;66.20
5500;BME280;2772;42.700;23.304;2022-09-21T11:37:58;95189.41;;;16.34;65.27
5500;BME280;2772;42.700;23.304;2022-09-21T11:40:39;95188.16;;;16.44;64.54
5500;BME280;2772;42.700;23.304;2022-09-21T11:43:17;95194.31;;;16.56;65.51
5500;BME280;2772;42.700;23.304;2022-09-21T11:45:58;95209.78;;;16.35;75.60
5500;BME280;2772;42.700;23.304;2022-09-21T11:48:44;95210.19;;;15.85;80.06
5500;BME280;2772;42.700;23.304;2022-09-21T11:51:32;95208.16;;;15.46;83.40
5500;BME280;2772;42.700;23.304;2022-09-21T11:57:07;95217.78;;;15.03;89.37
5500;BME280;2772;42.700;23.304;2022-09-21T11:59:49;95205.84;;;14.80;92.64
5500;BME280;2772;42.700;23.304;2022-09-21T12:05:22;95202.50;;;14.83;96.32
5500;BME280;2772;42.700;23.304;2022-09-21T12:08:02;95217.59;;;14.87;93.88
5500;BME280;2772;42.700;23.304;2022-09-21T12:10:43;95211.91;;;14.56;97.13
5500;BME280;2772;42.700;23.304;2022-09-21T12:13:20;95213.16;;;14.71;98.28
5500;BME280;2772;42.700;23.304;2022-09-21T12:15:58;95204.69;;;14.69;100.00
5500;BME280;2772;42.700;23.304;2022-09-21T12:18:34;95210.75;;;14.78;100.00
5500;BME280;2772;42.700;23.304;2022-09-21T12:21:09;95208.06;;;14.78;99.24
5500;BME280;2772;42.700;23.304;2022-09-21T12:23:41;95213.25;;;14.83;100.00
5500;BME280;2772;42.700;23.304;2022-09-21T12:26:11;95223.09;;;14.91;99.83
5500;BME280;2772;42.700;23.304;2022-09-21T12:28:44;95211.59;;;14.90;98.91
5500;BME280;2772;42.700;23.304;2022-09-21T12:31:16;95220.41;;;14.91;96.14
5500;BME280;2772;42.700;23.304;2022-09-21T12:33:46;95204.59;;;15.10;94.59
5500;BME280;2772;42.700;23.304;2022-09-21T12:36:17;95207.06;;;15.27;90.56
5500;BME280;2772;42.700;23.304;2022-09-21T12:38:50;95194.38;;;15.36;88.01
5500;BME280;2772;42.700;23.304;2022-09-21T12:41:25;95207.16;;;15.51;87.32
5500;BME280;2772;42.700;23.304;2022-09-21T12:44:03;95206.94;;;15.68;87.10
5500;BME280;2772;42.700;23.304;2022-09-21T12:46:36;95193.75;;;15.87;84.78
5500;BME280;2772;42.700;23.304;2022-09-21T12:49:11;95192.13;;;16.10;83.59
5500;BME280;2772;42.700;23.304;2022-09-21T12:51:43;95196.50;;;16.27;81.29
5500;BME280;2772;42.700;23.304;2022-09-21T12:54:18;95197.31;;;16.43;78.53
5500;BME280;2772;42.700;23.304;2022-09-21T12:56:52;95178.41;;;16.51;77.77
5500;BME280;2772;42.700;23.304;2022-09-21T12:59:30;95193.47;;;16.68;76.36
5500;BME280;2772;42.700;23.304;2022-09-21T13:02:11;95194.66;;;16.55;77.48
5500;BME280;2772;42.700;23.304;2022-09-21T13:04:49;95190.97;;;16.47;75.66
5500;BME280;2772;42.700;23.304;2022-09-21T13:07:44;95179.34;;;16.31;75.37
5500;BME280;2772;42.700;23.304;2022-09-21T13:10:33;95189.06;;;16.48;75.17
5500;BME280;2772;42.700;23.304;2022-09-21T13:13:05;95182.66;;;16.40;73.87
5500;BME280;2772;42.700;23.304;2022-09-21T13:15:43;95183.47;;;16.41;73.42
5500;BME280;2772;42.700;23.304;2022-09-21T13:18:25;95187.28;;;16.28;73.41
5500;BME280;2772;42.700;23.304;2022-09-21T13:20:55;95186.41;;;16.24;69.06
5500;BME280;2772;42.700;23.304;2022-09-21T13:23:26;95181.97;;;16.16;66.50
5500;BME280;2772;42.700;23.304;2022-09-21T13:26:01;95182.38;;;16.18;66.70
5500;BME280;2772;42.700;23.304;2022-09-21T13:29:00;95180.25;;;16.23;67.09
5500;BME280;2772;42.700;23.304;2022-09-21T13:31:52;95185.31;;;16.13;67.43
5500;BME280;2772;42.700;23.304;2022-09-21T13:34:33;95196.94;;;16.17;67.18
5500;BME280;2772;42.700;23.304;2022-09-21T13:37:30;95179.84;;;16.09;66.42
5500;BME280;2772;42.700;23.304;2022-09-21T13:43:18;95193.72;;;16.11;67.98
5500;BME280;2772;42.700;23.304;2022-09-21T13:45:52;95176.94;;;15.90;65.89